This is the latest recevied weather packets stored in our database for station/object N2PUI. If no packets are shown the sender has not sent any weather packets the latest 10 day(s).
| Time | Temp. | Humidity | Pressure | Rain* | Wind** | Luminosity | Snow |
|---|---|---|---|---|---|---|---|
| 1778094233 | 8.89° C | 95% | 1008.1 hPa | 0 mm | - | 78 W/m² | - |
| 1778093930 | 8.89° C | 95% | 1008 hPa | 0 mm | - | 71 W/m² | - |
| 1778093627 | 8.89° C | 95% | 1007.9 hPa | 0 mm | - | 75 W/m² | - |
| 1778093324 | 8.89° C | 95% | 1008 hPa | 0 mm | - | 96 W/m² | - |
| 1778093021 | 8.89° C | 95% | 1008 hPa | 0 mm | - | 116 W/m² | - |
| 1778092718 | 8.33° C | 95% | 1007.9 hPa | 0 mm | - | 118 W/m² | - |
| 1778092413 | 8.33° C | 95% | 1007.8 hPa | 0 mm | - | 117 W/m² | - |
| 1778092111 | 8.33° C | 95% | 1007.9 hPa | 0 mm | - | 105 W/m² | - |
| 1778091808 | 8.33° C | 95% | 1007.7 hPa | 0 mm | - | 117 W/m² | - |
| 1778091505 | 8.33° C | 95% | 1007.8 hPa | 0 mm | - | 111 W/m² | - |
| 1778091203 | 8.33° C | 95% | 1007.7 hPa | 0 mm | - | 106 W/m² | - |
| 1778090900 | 8.33° C | 95% | 1007.7 hPa | 0 mm | - | 107 W/m² | - |
| 1778090596 | 8.33° C | 95% | 1007.8 hPa | 0 mm | - | 97 W/m² | - |
| 1778090292 | 8.89° C | 95% | 1007.7 hPa | 0 mm | - | 139 W/m² | - |
| 1778089989 | 8.89° C | 95% | 1007.6 hPa | 0 mm | - | 117 W/m² | - |
| 1778089687 | 8.89° C | 95% | 1007.5 hPa | 0 mm | - | 127 W/m² | - |
| 1778089384 | 8.89° C | 95% | 1007.3 hPa | 0 mm | - | 123 W/m² | - |
| 1778089081 | 8.89° C | 95% | 1007.5 hPa | 0 mm | - | 105 W/m² | - |
| 1778088778 | 8.89° C | 95% | 1007.2 hPa | 0 mm | - | 111 W/m² | - |
| 1778088475 | 8.89° C | 95% | 1007.4 hPa | 0 mm | - | 81 W/m² | - |
| 1778088171 | 8.89° C | 95% | 1007.3 hPa | 1.27 mm | - | 89 W/m² | - |
| 1778087869 | 8.89° C | 95% | 1007.2 hPa | 1.27 mm | - | 93 W/m² | - |
| 1778087566 | 8.89° C | 95% | 1007 hPa | 0 mm | - | 119 W/m² | - |
| 1778087264 | 9.44° C | 95% | 1007.2 hPa | 0 mm | - | 78 W/m² | - |
| 1778086960 | 8.89° C | 95% | 1007.4 hPa | 0 mm | - | 71 W/m² | - |
* Rain latest hour (hover to see other rain measurements)
** Current wind speed in m/s (hover to see current wind gust speed)